createdAt,value
2018-03-26T00:00:37.706Z,20.60
2018-03-26T00:03:05.761Z,20.60
2018-03-26T00:05:33.819Z,20.60
2018-03-26T00:08:02.641Z,20.50
2018-03-26T00:10:30.736Z,20.50
2018-03-26T00:12:58.810Z,20.50
2018-03-26T00:15:26.881Z,20.50
2018-03-26T00:17:54.926Z,20.50
2018-03-26T00:20:22.984Z,20.50
2018-03-26T00:22:51.065Z,20.50
2018-03-26T00:25:19.114Z,20.50
2018-03-26T00:27:47.161Z,20.40
2018-03-26T00:30:15.244Z,20.40
2018-03-26T00:32:43.350Z,20.40
2018-03-26T00:35:11.444Z,20.40
2018-03-26T00:37:39.478Z,20.40
2018-03-26T00:40:07.556Z,20.30
2018-03-26T00:42:35.596Z,20.30
2018-03-26T00:45:03.646Z,20.30
2018-03-26T00:47:31.706Z,20.30
2018-03-26T00:49:59.748Z,20.30
2018-03-26T00:52:27.838Z,20.30
2018-03-26T00:54:55.904Z,20.30
2018-03-26T00:57:23.964Z,20.30
2018-03-26T00:59:52.793Z,20.20
2018-03-26T01:02:20.854Z,20.20
2018-03-26T01:04:48.960Z,20.20
2018-03-26T01:07:17.052Z,20.20
2018-03-26T01:10:00.026Z,20.20
2018-03-26T01:12:38.018Z,20.20
2018-03-26T01:15:06.081Z,20.10
2018-03-26T01:17:49.840Z,20.10
2018-03-26T01:20:23.380Z,20.10
2018-03-26T01:22:53.856Z,20.10
2018-03-26T01:25:27.447Z,20.10
2018-03-26T01:28:12.856Z,20.10
2018-03-26T01:30:55.796Z,20.10
2018-03-26T01:33:29.269Z,20.00
2018-03-26T01:35:57.685Z,20.00
2018-03-26T01:38:31.247Z,20.00
2018-03-26T01:41:01.267Z,20.00
2018-03-26T01:43:33.753Z,20.00
2018-03-26T01:46:01.831Z,20.00
2018-03-26T01:48:29.895Z,19.90
2018-03-26T01:50:57.961Z,19.90
2018-03-26T01:53:26.013Z,19.90
2018-03-26T01:55:54.081Z,19.90
2018-03-26T01:58:22.135Z,19.90
2018-03-26T02:00:50.973Z,19.80
2018-03-26T02:03:19.053Z,19.80
2018-03-26T02:05:47.127Z,19.80
2018-03-26T02:08:15.185Z,19.80
2018-03-26T02:10:43.247Z,19.80
2018-03-26T02:13:11.292Z,19.80
2018-03-26T02:15:39.370Z,19.80
2018-03-26T02:18:07.453Z,19.80
2018-03-26T02:20:35.478Z,19.80
2018-03-26T02:23:03.576Z,19.70
2018-03-26T02:25:31.619Z,19.70
2018-03-26T02:27:59.659Z,19.70
2018-03-26T02:30:27.725Z,19.70
2018-03-26T02:32:55.764Z,19.70
2018-03-26T02:35:23.819Z,19.70
2018-03-26T02:37:51.867Z,19.60
2018-03-26T02:40:19.945Z,19.60
2018-03-26T02:42:48.017Z,19.60
2018-03-26T02:45:16.050Z,19.60
2018-03-26T02:47:44.142Z,19.60
2018-03-26T02:50:12.409Z,19.60
2018-03-26T02:52:40.460Z,19.60
2018-03-26T02:55:08.505Z,19.50
2018-03-26T02:57:36.571Z,19.50
2018-03-26T03:00:04.659Z,19.50
2018-03-26T03:02:32.722Z,19.50
2018-03-26T03:05:00.876Z,19.50
2018-03-26T03:07:28.904Z,19.50
2018-03-26T03:09:56.952Z,19.40
2018-03-26T03:12:25.015Z,19.40
2018-03-26T03:14:53.061Z,19.40
2018-03-26T03:17:21.132Z,19.40
2018-03-26T03:19:49.182Z,19.40
2018-03-26T03:22:17.988Z,19.40
2018-03-26T03:24:46.050Z,19.40
2018-03-26T03:27:14.116Z,19.40
2018-03-26T03:29:42.160Z,19.40
2018-03-26T03:32:10.232Z,19.30
2018-03-26T03:34:39.161Z,19.30
2018-03-26T03:37:07.231Z,19.30
2018-03-26T03:39:35.321Z,19.40
2018-03-26T03:42:03.384Z,19.50
2018-03-26T03:44:31.439Z,19.60
2018-03-26T03:46:59.575Z,19.70
2018-03-26T03:49:27.613Z,19.80
2018-03-26T03:51:55.645Z,19.90
2018-03-26T03:54:23.702Z,19.90
2018-03-26T03:56:51.798Z,20.10
2018-03-26T03:59:19.874Z,20.20
2018-03-26T04:01:47.955Z,20.40
2018-03-26T04:04:16.007Z,20.50
2018-03-26T04:06:44.061Z,20.60
2018-03-26T04:09:12.125Z,20.70
2018-03-26T04:11:40.189Z,20.80
2018-03-26T04:14:08.235Z,20.90
2018-03-26T04:16:36.313Z,20.90
2018-03-26T04:19:04.349Z,20.90
2018-03-26T04:21:32.410Z,21.00
2018-03-26T04:24:01.252Z,21.10
2018-03-26T04:26:29.305Z,21.00
2018-03-26T04:28:57.348Z,20.70
2018-03-26T04:31:26.189Z,20.50
2018-03-26T04:33:54.233Z,20.50
2018-03-26T04:36:22.274Z,20.40
2018-03-26T04:38:50.376Z,20.40
2018-03-26T04:41:18.415Z,20.40
2018-03-26T04:43:46.493Z,20.40
2018-03-26T04:46:14.544Z,20.30
2018-03-26T04:48:42.626Z,20.30
2018-03-26T04:51:11.456Z,20.30
2018-03-26T04:53:39.520Z,20.30
2018-03-26T04:56:07.574Z,20.30
2018-03-26T04:58:35.632Z,20.30
2018-03-26T05:01:03.695Z,20.30
2018-03-26T05:03:38.110Z,20.30
2018-03-26T05:06:06.170Z,20.30
2018-03-26T05:08:34.218Z,20.30
2018-03-26T05:11:03.771Z,20.20
2018-03-26T05:13:31.837Z,20.20
2018-03-26T05:15:59.900Z,20.20
2018-03-26T05:18:29.481Z,20.20
2018-03-26T05:20:57.529Z,20.20
2018-03-26T05:23:25.580Z,20.20
2018-03-26T05:25:53.637Z,20.20
2018-03-26T05:28:21.700Z,20.20
2018-03-26T05:30:49.783Z,20.20
2018-03-26T05:33:17.843Z,20.20
2018-03-26T05:35:46.648Z,20.20
2018-03-26T05:38:14.697Z,20.20
2018-03-26T05:40:42.758Z,20.20
2018-03-26T05:43:10.797Z,20.20
2018-03-26T05:45:38.849Z,20.20
2018-03-26T05:48:06.903Z,20.20
2018-03-26T05:50:34.955Z,20.20
2018-03-26T05:53:04.537Z,20.20
2018-03-26T05:55:32.670Z,20.20
2018-03-26T05:58:01.524Z,20.20
2018-03-26T06:00:29.574Z,20.20
2018-03-26T06:02:57.638Z,20.20
2018-03-26T06:05:25.703Z,20.10
2018-03-26T06:07:53.744Z,20.10
2018-03-26T06:10:21.818Z,20.00
2018-03-26T06:12:49.882Z,20.00
2018-03-26T06:15:17.940Z,20.00
2018-03-26T06:17:46.040Z,20.00
2018-03-26T06:20:14.084Z,20.00
2018-03-26T06:22:42.152Z,20.00
2018-03-26T06:25:10.226Z,19.90
2018-03-26T06:27:38.287Z,19.90
2018-03-26T06:30:06.348Z,20.00
2018-03-26T06:32:34.436Z,20.00
2018-03-26T06:35:02.494Z,20.00
2018-03-26T06:37:35.941Z,19.80
2018-03-26T06:40:04.252Z,19.90
2018-03-26T06:42:32.332Z,19.90
2018-03-26T06:45:00.799Z,19.90
2018-03-26T06:47:28.863Z,19.90
2018-03-26T06:49:56.957Z,19.90
2018-03-26T06:52:25.041Z,19.90
2018-03-26T06:54:53.087Z,19.90
2018-03-26T06:57:21.943Z,19.90
2018-03-26T06:59:49.991Z,19.90
2018-03-26T07:02:18.070Z,19.90
2018-03-26T07:04:46.120Z,19.90
2018-03-26T07:07:14.166Z,19.90
2018-03-26T07:09:42.226Z,19.90
2018-03-26T07:12:10.308Z,19.90
2018-03-26T07:14:38.383Z,19.90
2018-03-26T07:17:06.446Z,19.90
2018-03-26T07:19:34.521Z,19.90
2018-03-26T07:22:02.585Z,19.90
2018-03-26T07:24:30.620Z,19.90
2018-03-26T07:26:59.454Z,19.90
2018-03-26T07:29:27.639Z,19.90
2018-03-26T07:31:55.694Z,19.90
2018-03-26T07:34:23.739Z,19.90
2018-03-26T07:36:51.881Z,20.00
2018-03-26T07:39:19.967Z,19.90
2018-03-26T07:41:48.017Z,19.90
2018-03-26T07:44:16.053Z,19.90
2018-03-26T07:46:44.102Z,19.90
2018-03-26T07:49:12.186Z,19.90
2018-03-26T07:51:41.020Z,19.80
2018-03-26T07:54:09.079Z,19.80
2018-03-26T07:56:37.113Z,19.80
2018-03-26T07:59:05.173Z,19.60
2018-03-26T08:01:33.218Z,19.50
2018-03-26T08:04:01.286Z,19.40
2018-03-26T08:06:29.402Z,19.40
2018-03-26T08:08:57.461Z,19.30
2018-03-26T08:11:25.522Z,19.40
2018-03-26T08:13:53.604Z,19.50
2018-03-26T08:16:21.648Z,19.60
2018-03-26T08:18:49.732Z,19.70
2018-03-26T08:21:17.792Z,19.60
2018-03-26T08:23:45.853Z,19.70
2018-03-26T08:26:13.898Z,19.80
2018-03-26T08:28:41.966Z,19.80
2018-03-26T08:31:10.042Z,19.70
2018-03-26T08:33:38.120Z,19.70
2018-03-26T08:36:06.155Z,19.70
2018-03-26T08:38:35.010Z,19.80
2018-03-26T08:41:03.080Z,19.90
2018-03-26T08:43:31.142Z,19.90
2018-03-26T08:45:59.213Z,20.00
2018-03-26T08:48:27.275Z,20.00
2018-03-26T08:50:55.322Z,20.10
2018-03-26T08:53:23.369Z,20.00
2018-03-26T08:55:51.440Z,20.00
2018-03-26T08:58:19.497Z,20.00
2018-03-26T09:00:47.529Z,20.00
2018-03-26T09:03:15.603Z,20.10
2018-03-26T09:05:43.750Z,20.10
2018-03-26T09:08:11.759Z,20.10
2018-03-26T09:10:39.817Z,20.10
2018-03-26T09:13:07.871Z,20.20
2018-03-26T09:15:36.685Z,20.10
2018-03-26T09:18:04.746Z,20.10
2018-03-26T09:20:32.790Z,20.00
2018-03-26T09:23:01.613Z,20.00
2018-03-26T09:25:29.682Z,20.00
2018-03-26T09:27:58.500Z,20.00
2018-03-26T09:30:26.553Z,20.00
2018-03-26T09:32:54.641Z,19.90
2018-03-26T09:35:22.701Z,19.80
2018-03-26T09:37:50.742Z,19.80
2018-03-26T09:40:19.088Z,19.90
2018-03-26T09:42:47.164Z,19.90
2018-03-26T09:45:15.217Z,20.10
2018-03-26T09:47:43.329Z,20.20
2018-03-26T09:50:11.359Z,20.30
2018-03-26T09:52:39.451Z,20.30
2018-03-26T09:55:07.515Z,20.20
2018-03-26T09:57:35.569Z,20.10
2018-03-26T10:00:03.626Z,20.10
2018-03-26T10:02:31.688Z,20.10
2018-03-26T10:04:59.860Z,20.20
2018-03-26T10:07:27.949Z,20.20
2018-03-26T10:09:56.033Z,20.30
2018-03-26T10:12:24.224Z,20.40
2018-03-26T10:14:52.286Z,20.50
2018-03-26T10:17:20.380Z,20.60
2018-03-26T10:19:48.508Z,20.60
2018-03-26T10:22:16.595Z,20.70
2018-03-26T10:24:44.634Z,20.70
2018-03-26T10:27:13.458Z,20.80
2018-03-26T10:29:42.311Z,20.80
2018-03-26T10:32:10.362Z,20.80
2018-03-26T10:34:38.463Z,20.90
2018-03-26T10:37:06.520Z,20.90
2018-03-26T10:39:35.349Z,20.80
2018-03-26T10:42:03.392Z,20.70
2018-03-26T10:44:32.258Z,20.70
2018-03-26T10:47:00.301Z,20.70
2018-03-26T10:49:28.400Z,20.70
2018-03-26T10:51:56.472Z,20.70
2018-03-26T10:54:24.541Z,20.70
2018-03-26T10:56:52.593Z,20.60
2018-03-26T10:59:20.663Z,20.50
2018-03-26T11:01:48.744Z,20.50
2018-03-26T11:04:16.783Z,20.50
2018-03-26T11:06:44.831Z,20.40
2018-03-26T11:09:12.889Z,20.40
2018-03-26T11:11:40.941Z,20.40
2018-03-26T11:14:09.011Z,20.40
2018-03-26T11:16:37.060Z,20.40
2018-03-26T11:19:05.127Z,20.30
2018-03-26T11:21:33.213Z,20.40
2018-03-26T11:24:01.292Z,20.50
2018-03-26T11:26:29.353Z,20.50
2018-03-26T11:28:57.411Z,20.50
2018-03-26T11:31:25.467Z,20.60
2018-03-26T11:33:53.541Z,20.60
2018-03-26T11:36:22.439Z,20.60
2018-03-26T11:38:50.468Z,20.60
2018-03-26T11:41:18.553Z,20.60
2018-03-26T11:43:46.635Z,20.60
2018-03-26T11:46:15.458Z,20.60
2018-03-26T11:48:43.540Z,20.60
2018-03-26T11:51:11.598Z,20.70
2018-03-26T11:53:39.696Z,20.70
2018-03-26T11:56:07.744Z,20.70
2018-03-26T11:58:35.814Z,20.70
2018-03-26T12:01:03.852Z,20.70
2018-03-26T12:03:31.924Z,20.70
2018-03-26T12:06:00.040Z,20.70
2018-03-26T12:08:28.090Z,20.80
2018-03-26T12:10:56.204Z,20.80
2018-03-26T12:13:24.269Z,20.80
2018-03-26T12:15:52.350Z,20.80
2018-03-26T12:18:20.418Z,20.80
2018-03-26T12:20:48.488Z,20.80
2018-03-26T12:23:16.588Z,20.80
2018-03-26T12:25:45.452Z,20.90
2018-03-26T12:28:13.513Z,20.80
2018-03-26T12:30:41.575Z,20.90
2018-03-26T12:33:09.633Z,20.90
2018-03-26T12:35:37.687Z,20.90
2018-03-26T12:38:05.730Z,20.90
2018-03-26T12:40:34.146Z,20.80
2018-03-26T12:43:02.237Z,20.90
2018-03-26T12:45:30.320Z,20.90
2018-03-26T12:47:59.137Z,20.90
2018-03-26T12:50:27.197Z,20.90
2018-03-26T12:52:55.233Z,20.90
2018-03-26T12:55:23.304Z,20.90
2018-03-26T12:57:51.366Z,20.90
2018-03-26T13:00:20.213Z,21.00
2018-03-26T13:02:48.262Z,20.90
2018-03-26T13:05:16.313Z,21.00
2018-03-26T13:07:44.359Z,21.00
2018-03-26T13:10:13.177Z,21.00
2018-03-26T13:12:41.257Z,21.00
2018-03-26T13:15:09.278Z,21.00
2018-03-26T13:17:38.147Z,21.00
2018-03-26T13:20:06.187Z,21.00
2018-03-26T13:22:34.241Z,21.00
2018-03-26T13:25:02.324Z,21.00
2018-03-26T13:27:31.139Z,21.00
2018-03-26T13:29:59.210Z,21.00
2018-03-26T13:32:27.261Z,21.00
2018-03-26T13:34:55.316Z,21.00
2018-03-26T13:37:23.368Z,21.10
2018-03-26T13:39:51.438Z,21.10
2018-03-26T13:42:19.496Z,21.10
2018-03-26T13:44:47.536Z,21.10
2018-03-26T13:47:15.596Z,21.10
2018-03-26T13:49:43.678Z,21.10
2018-03-26T13:52:11.756Z,21.10
2018-03-26T13:54:39.827Z,21.10
2018-03-26T13:57:07.878Z,21.10
2018-03-26T13:59:36.685Z,21.00
2018-03-26T14:02:04.775Z,21.00
2018-03-26T14:04:32.812Z,20.90
2018-03-26T14:07:00.867Z,20.90
2018-03-26T14:09:28.924Z,20.90
2018-03-26T14:11:56.982Z,20.80
2018-03-26T14:14:25.071Z,20.80
2018-03-26T14:16:53.118Z,20.80
2018-03-26T14:19:21.178Z,20.80
2018-03-26T14:21:49.254Z,20.80
2018-03-26T14:24:17.314Z,20.80
2018-03-26T14:26:45.357Z,20.80
2018-03-26T14:29:13.409Z,20.80
2018-03-26T14:31:41.448Z,20.80
2018-03-26T14:34:09.503Z,20.80
2018-03-26T14:36:37.543Z,20.80
2018-03-26T14:39:05.607Z,20.80
2018-03-26T14:41:33.683Z,20.80
2018-03-26T14:44:01.773Z,20.80
2018-03-26T14:46:29.820Z,20.80
2018-03-26T14:48:57.843Z,20.80
2018-03-26T14:51:25.905Z,20.80
2018-03-26T14:53:54.005Z,20.80
2018-03-26T14:56:22.067Z,20.80
2018-03-26T14:58:50.132Z,20.70
2018-03-26T15:01:18.206Z,20.80
2018-03-26T15:03:46.290Z,20.80
2018-03-26T15:06:14.327Z,20.80
2018-03-26T15:08:42.384Z,20.90
2018-03-26T15:11:11.184Z,20.90
2018-03-26T15:13:39.302Z,20.90
2018-03-26T15:16:07.554Z,20.90
2018-03-26T15:18:36.160Z,20.90
2018-03-26T15:21:04.573Z,20.90
2018-03-26T15:23:32.726Z,20.90
2018-03-26T15:26:00.829Z,20.90
2018-03-26T15:28:29.128Z,20.90
2018-03-26T15:30:57.274Z,20.90
2018-03-26T15:33:25.359Z,20.90
2018-03-26T15:35:54.194Z,20.90
2018-03-26T15:38:22.245Z,20.90
2018-03-26T15:40:50.298Z,20.90
2018-03-26T15:43:18.347Z,20.90
2018-03-26T15:45:46.395Z,20.90
2018-03-26T15:48:14.455Z,21.00
2018-03-26T15:50:42.534Z,20.90
2018-03-26T15:53:10.904Z,20.90
2018-03-26T15:55:38.963Z,20.90
2018-03-26T15:58:07.010Z,20.90
2018-03-26T16:00:35.052Z,21.00
2018-03-26T16:03:08.590Z,21.00
2018-03-26T16:05:36.640Z,20.90
2018-03-26T16:08:05.544Z,20.90
2018-03-26T16:10:34.287Z,20.90
2018-03-26T16:13:02.346Z,20.90
2018-03-26T16:15:30.422Z,20.90
2018-03-26T16:17:58.477Z,20.90
2018-03-26T16:20:27.276Z,20.90
2018-03-26T16:22:55.365Z,20.90
2018-03-26T16:25:23.431Z,20.90
2018-03-26T16:27:52.267Z,20.90
2018-03-26T16:30:20.313Z,20.90
2018-03-26T16:32:48.361Z,20.90
2018-03-26T16:35:16.451Z,20.90
2018-03-26T16:37:44.525Z,20.90
2018-03-26T16:40:12.636Z,20.90
2018-03-26T16:42:40.681Z,20.90
2018-03-26T16:45:08.793Z,20.90
2018-03-26T16:47:36.857Z,21.00
2018-03-26T16:50:04.919Z,21.00
2018-03-26T16:52:33.255Z,21.00
2018-03-26T16:55:01.301Z,20.80
2018-03-26T16:57:29.403Z,20.80
2018-03-26T16:59:57.464Z,21.00
2018-03-26T17:02:25.525Z,21.10
2018-03-26T17:04:53.595Z,21.10
2018-03-26T17:07:21.657Z,21.10
2018-03-26T17:09:49.744Z,21.20
2018-03-26T17:12:17.808Z,21.20
2018-03-26T17:14:45.879Z,21.30
2018-03-26T17:17:13.943Z,21.30
2018-03-26T17:19:42.041Z,21.30
2018-03-26T17:22:10.154Z,21.30
2018-03-26T17:24:38.193Z,21.40
2018-03-26T17:27:06.274Z,21.40
2018-03-26T17:29:34.336Z,21.50
2018-03-26T17:32:02.902Z,21.40
2018-03-26T17:34:30.964Z,21.40
2018-03-26T17:36:59.004Z,21.50
2018-03-26T17:39:27.068Z,21.50
2018-03-26T17:41:55.159Z,21.50
2018-03-26T17:44:23.214Z,21.50
2018-03-26T17:46:51.268Z,21.50
2018-03-26T17:49:19.362Z,21.60
2018-03-26T17:51:47.410Z,21.50
2018-03-26T17:54:15.478Z,21.40
2018-03-26T17:56:43.554Z,21.40
2018-03-26T17:59:11.606Z,21.50
2018-03-26T18:01:39.668Z,21.50
2018-03-26T18:04:07.736Z,21.30
2018-03-26T18:06:35.854Z,21.50
2018-03-26T18:09:04.116Z,21.40
2018-03-26T18:11:32.210Z,21.40
2018-03-26T18:14:00.273Z,21.50
2018-03-26T18:16:28.337Z,21.50
2018-03-26T18:18:56.406Z,21.60
2018-03-26T18:21:24.478Z,21.60
2018-03-26T18:23:52.547Z,21.70
2018-03-26T18:26:20.599Z,21.70
2018-03-26T18:28:48.659Z,21.70
2018-03-26T18:31:16.733Z,21.70
2018-03-26T18:33:44.803Z,21.80
2018-03-26T18:36:12.867Z,21.80
2018-03-26T18:38:40.936Z,21.80
2018-03-26T18:41:09.186Z,21.80
2018-03-26T18:43:37.273Z,21.80
2018-03-26T18:46:05.378Z,21.80
2018-03-26T18:48:33.477Z,21.80
2018-03-26T18:51:01.543Z,21.80
2018-03-26T18:53:29.617Z,21.80
2018-03-26T18:55:57.687Z,21.80
2018-03-26T18:58:25.743Z,21.90
2018-03-26T19:00:54.394Z,21.80
2018-03-26T19:03:22.471Z,21.90
2018-03-26T19:05:50.545Z,21.90
2018-03-26T19:08:18.623Z,21.90
2018-03-26T19:10:46.699Z,21.90
2018-03-26T19:13:14.783Z,22.00
2018-03-26T19:15:42.856Z,21.90
2018-03-26T19:18:10.957Z,22.00
2018-03-26T19:20:39.166Z,22.00
2018-03-26T19:23:07.242Z,22.00
2018-03-26T19:25:35.322Z,22.00
2018-03-26T19:28:03.398Z,22.00
2018-03-26T19:32:54.079Z,22.00
2018-03-26T19:35:22.153Z,22.00
2018-03-26T19:37:50.403Z,22.10
2018-03-26T19:40:18.680Z,22.10
2018-03-26T19:42:46.748Z,22.00
2018-03-26T19:45:15.198Z,22.10
2018-03-26T19:47:43.278Z,22.10
2018-03-26T19:50:11.441Z,22.10
2018-03-26T19:52:39.642Z,22.10
2018-03-26T19:55:07.750Z,22.10
2018-03-26T19:57:35.804Z,22.10
2018-03-26T20:00:03.880Z,22.10
2018-03-26T20:02:31.999Z,22.10
2018-03-26T20:05:00.816Z,22.10
2018-03-26T20:07:28.913Z,22.00
2018-03-26T20:09:56.950Z,22.10
2018-03-26T20:12:25.261Z,22.10
2018-03-26T20:14:53.309Z,21.90
2018-03-26T20:17:21.382Z,21.80
2018-03-26T20:19:49.455Z,21.70
2018-03-26T20:22:17.525Z,21.70
2018-03-26T20:24:45.579Z,21.70
2018-03-26T20:27:13.664Z,21.70
2018-03-26T20:29:41.734Z,21.70
2018-03-26T20:32:09.782Z,21.70
2018-03-26T20:34:37.863Z,21.60
2018-03-26T20:37:05.923Z,21.60
2018-03-26T20:39:34.005Z,21.60
2018-03-26T20:42:02.054Z,21.60
2018-03-26T20:44:30.123Z,21.60
2018-03-26T20:46:58.219Z,21.60
2018-03-26T20:49:26.281Z,21.60
2018-03-26T20:51:54.444Z,21.50
2018-03-26T20:54:22.491Z,21.50
2018-03-26T20:56:50.579Z,21.50
2018-03-26T20:59:18.683Z,21.50
2018-03-26T21:01:46.749Z,21.40
2018-03-26T21:04:14.804Z,21.60
2018-03-26T21:06:42.885Z,21.60
2018-03-26T21:09:10.934Z,21.70
2018-03-26T21:11:39.410Z,21.70
2018-03-26T21:14:07.497Z,21.70
2018-03-26T21:16:35.545Z,21.70
2018-03-26T21:19:03.601Z,21.70
2018-03-26T21:21:31.673Z,21.70
2018-03-26T21:23:59.736Z,21.70
2018-03-26T21:26:27.817Z,21.70
2018-03-26T21:28:55.907Z,21.70
2018-03-26T21:31:23.982Z,21.70
2018-03-26T21:33:52.036Z,21.70
2018-03-26T21:36:20.090Z,21.70
2018-03-26T21:38:48.174Z,21.70
2018-03-26T21:41:16.280Z,21.70
2018-03-26T21:43:44.552Z,21.70
2018-03-26T21:46:12.692Z,21.70
2018-03-26T21:48:41.934Z,21.60
2018-03-26T21:51:10.006Z,21.60
2018-03-26T21:53:38.136Z,21.60
2018-03-26T21:56:06.206Z,21.60
2018-03-26T21:58:34.248Z,21.60
2018-03-26T22:01:02.368Z,21.60
2018-03-26T22:03:30.936Z,21.50
2018-03-26T22:05:58.997Z,21.50
2018-03-26T22:08:27.065Z,21.50
2018-03-26T22:10:55.138Z,21.50
2018-03-26T22:13:23.184Z,21.40
2018-03-26T22:15:51.264Z,21.40
2018-03-26T22:18:19.337Z,21.40
2018-03-26T22:20:47.403Z,21.40
2018-03-26T22:23:15.477Z,21.40
2018-03-26T22:25:43.521Z,21.30
2018-03-26T22:28:11.627Z,21.30
2018-03-26T22:30:39.769Z,21.30
2018-03-26T22:33:07.827Z,21.30
2018-03-26T22:35:35.936Z,21.30
2018-03-26T22:38:04.008Z,21.30
2018-03-26T22:40:32.066Z,21.20
2018-03-26T22:43:00.120Z,21.20
2018-03-26T22:45:28.215Z,21.20
2018-03-26T22:47:56.271Z,21.20
2018-03-26T22:50:24.331Z,21.20
2018-03-26T22:52:52.395Z,21.10
2018-03-26T22:55:20.476Z,21.10
2018-03-26T22:57:48.551Z,21.10
2018-03-26T23:00:16.599Z,21.10
2018-03-26T23:02:44.654Z,21.10
2018-03-26T23:05:12.715Z,21.00
2018-03-26T23:07:40.800Z,21.00
2018-03-26T23:10:08.833Z,21.00
2018-03-26T23:12:36.881Z,21.00
2018-03-26T23:15:04.978Z,21.00
2018-03-26T23:17:33.062Z,20.90
2018-03-26T23:20:01.133Z,20.90
2018-03-26T23:22:29.200Z,20.90
2018-03-26T23:24:57.233Z,20.90
2018-03-26T23:27:26.052Z,20.80
2018-03-26T23:29:54.090Z,20.80
2018-03-26T23:32:22.158Z,20.80
2018-03-26T23:34:50.234Z,20.80
2018-03-26T23:37:18.298Z,20.80
2018-03-26T23:39:46.361Z,20.80
2018-03-26T23:42:14.414Z,20.80
2018-03-26T23:44:42.478Z,20.70
2018-03-26T23:47:10.562Z,20.70
2018-03-26T23:49:38.613Z,20.70
2018-03-26T23:52:06.672Z,20.70
2018-03-26T23:54:34.724Z,20.70
2018-03-26T23:57:02.771Z,20.60
2018-03-26T23:59:30.864Z,20.60
